This is the latest recevied weather packets stored in our database for station/object LA9TLA-1. If no packets are shown the sender has not sent any weather packets the latest 10 day(s).
| Time | Temp. | Humidity | Pressure | Rain* | Wind** | Luminosity | Snow |
|---|---|---|---|---|---|---|---|
| 1778155063 | 10.56° C | 10% | 1027.1 hPa | 0 mm | - | - | - |
| 1778153262 | 10.56° C | 10% | 1027.4 hPa | 0 mm | - | - | - |
| 1778151463 | 11.11° C | 10% | 1027.4 hPa | 0 mm | - | - | - |
| 1778149664 | 11.67° C | 10% | 1027.1 hPa | 0 mm | - | - | - |
| 1778147862 | 11.67° C | 10% | 1027.4 hPa | 0 mm | - | - | - |
| 1778142463 | 11.67° C | 10% | 1027.1 hPa | 0 mm | - | - | - |
| 1778138866 | 10.56° C | 10% | 1027 hPa | 0 mm | - | - | - |
| 1778137064 | 10.56° C | 10% | 1027 hPa | 0 mm | - | - | - |
| 1778135266 | 8.89° C | 17% | 1026.9 hPa | 0 mm | - | - | - |
| 1778133463 | 6.67° C | 55% | 1026.9 hPa | 0 mm | - | - | - |
| 1778131665 | 6.11° C | 66% | 1026.8 hPa | 0 mm | - | - | - |
| 1778129862 | 6.11° C | 81% | 1026.6 hPa | 0 mm | - | - | - |
| 1778126263 | 4.44° C | 99% | 1026.5 hPa | 0 mm | - | - | - |
| 1778124463 | 4.44° C | 99% | 1026.3 hPa | 0 mm | - | - | - |
| 1778120862 | 4.44° C | 93% | 1026 hPa | 0 mm | - | - | - |
| 1778119064 | 4.44° C | 92% | 1026 hPa | 0 mm | - | - | - |
| 1778117263 | 5° C | 81% | 1026 hPa | 0 mm | - | - | - |
| 1778115463 | 5° C | 73% | 1026 hPa | 0 mm | - | - | - |
| 1778113663 | 5° C | 66% | 1025.8 hPa | 0 mm | - | - | - |
| 1778111861 | 5° C | 66% | 1025.9 hPa | 0 mm | - | - | - |
| 1778110063 | 5.56° C | 70% | 1025.5 hPa | 0 mm | - | - | - |
| 1778106464 | 5.56° C | 30% | 1025.5 hPa | 0 mm | - | - | - |
| 1778104665 | 5.56° C | 13% | 1025.5 hPa | 0 mm | - | - | - |
| 1778101063 | 5.56° C | 13% | 1025.4 hPa | 0 mm | - | - | - |
| 1778099262 | 6.11° C | 13% | 1025.1 hPa | 0 mm | - | - | - |
* Rain latest hour (hover to see other rain measurements)
** Current wind speed in m/s (hover to see current wind gust speed)